createdAt,value
2018-03-20T00:00:16.535Z,3.55
2018-03-20T00:02:43.901Z,3.56
2018-03-20T00:05:14.349Z,3.66
2018-03-20T00:07:42.402Z,3.59
2018-03-20T00:10:09.682Z,3.68
2018-03-20T00:12:36.993Z,3.59
2018-03-20T00:15:04.200Z,3.65
2018-03-20T00:17:31.421Z,3.72
2018-03-20T00:19:58.632Z,3.71
2018-03-20T00:22:25.873Z,3.85
2018-03-20T00:24:54.091Z,3.70
2018-03-20T00:27:21.237Z,3.67
2018-03-20T00:29:48.552Z,3.67
2018-03-20T00:32:15.840Z,3.76
2018-03-20T00:34:46.406Z,3.70
2018-03-20T00:37:14.047Z,3.71
2018-03-20T00:39:41.149Z,3.67
2018-03-20T00:42:08.613Z,3.71
2018-03-20T00:44:36.868Z,3.82
2018-03-20T00:47:04.036Z,3.81
2018-03-20T00:49:31.334Z,3.86
2018-03-20T00:51:58.381Z,3.73
2018-03-20T00:54:28.773Z,3.69
2018-03-20T00:56:56.020Z,3.70
2018-03-20T00:59:23.061Z,3.65
2018-03-20T01:01:50.025Z,3.65
2018-03-20T01:04:17.527Z,3.80
2018-03-20T01:06:44.886Z,3.86
2018-03-20T01:09:12.703Z,4.00
2018-03-20T01:11:39.943Z,3.98
2018-03-20T01:14:11.218Z,3.93
2018-03-20T01:16:38.378Z,4.01
2018-03-20T01:19:05.661Z,3.86
2018-03-20T01:21:33.016Z,3.89
2018-03-20T01:24:05.097Z,3.93
2018-03-20T01:26:32.200Z,3.88
2018-03-20T01:28:59.389Z,3.97
2018-03-20T01:31:26.545Z,4.03
2018-03-20T01:33:54.957Z,4.23
2018-03-20T01:36:22.245Z,4.02
2018-03-20T01:38:49.437Z,4.42
2018-03-20T01:41:16.596Z,4.36
2018-03-20T01:43:43.804Z,4.51
2018-03-20T01:46:10.980Z,4.48
2018-03-20T01:48:38.240Z,4.54
2018-03-20T01:51:05.428Z,4.34
2018-03-20T01:53:32.937Z,4.19
2018-03-20T01:56:01.216Z,4.28
2018-03-20T01:58:28.450Z,4.09
2018-03-20T02:00:55.750Z,4.26
2018-03-20T02:03:22.980Z,4.32
2018-03-20T02:05:54.942Z,4.33
2018-03-20T02:08:22.251Z,4.23
2018-03-20T02:10:50.004Z,4.34
2018-03-20T02:13:17.295Z,4.47
2018-03-20T02:15:55.196Z,4.42
2018-03-20T02:18:22.446Z,4.44
2018-03-20T02:20:49.969Z,4.40
2018-03-20T02:23:17.107Z,4.39
2018-03-20T02:25:45.616Z,4.43
2018-03-20T02:28:12.889Z,4.41
2018-03-20T02:30:40.159Z,4.33
2018-03-20T02:33:07.366Z,4.40
2018-03-20T02:35:35.641Z,4.37
2018-03-20T02:38:02.911Z,4.39
2018-03-20T02:40:30.108Z,4.48
2018-03-20T02:42:58.066Z,4.37
2018-03-20T02:45:25.526Z,4.37
2018-03-20T02:47:52.849Z,4.38
2018-03-20T02:50:20.129Z,4.44
2018-03-20T02:52:47.346Z,4.45
2018-03-20T02:55:18.438Z,4.50
2018-03-20T02:57:45.696Z,4.44
2018-03-20T03:00:12.916Z,4.58
2018-03-20T03:02:40.105Z,4.57
2018-03-20T03:05:10.513Z,4.65
2018-03-20T03:07:37.659Z,4.55
2018-03-20T03:10:04.935Z,4.48
2018-03-20T03:12:32.125Z,4.47
2018-03-20T03:15:00.685Z,4.49
2018-03-20T03:17:28.685Z,4.68
2018-03-20T03:19:55.826Z,4.42
2018-03-20T03:22:23.120Z,4.42
2018-03-20T03:24:53.689Z,4.35
2018-03-20T03:27:20.982Z,4.44
2018-03-20T03:29:48.985Z,4.10
2018-03-20T03:32:16.434Z,4.10
2018-03-20T03:34:44.715Z,4.03
2018-03-20T03:37:11.873Z,4.04
2018-03-20T03:39:39.011Z,4.07
2018-03-20T03:42:06.240Z,4.07
2018-03-20T03:44:34.506Z,4.06
2018-03-20T03:47:01.662Z,4.00
2018-03-20T03:49:28.920Z,3.96
2018-03-20T03:51:56.186Z,3.98
2018-03-20T03:54:26.781Z,4.00
2018-03-20T03:56:53.929Z,3.97
2018-03-20T03:59:21.222Z,3.92
2018-03-20T04:01:48.379Z,3.90
2018-03-20T04:04:16.662Z,3.98
2018-03-20T04:06:43.861Z,3.74
2018-03-20T04:09:11.050Z,3.80
2018-03-20T04:11:38.218Z,3.73
2018-03-20T04:14:05.529Z,3.77
2018-03-20T04:23:15.904Z,3.51
2018-03-20T04:25:44.514Z,3.67
2018-03-20T04:28:11.666Z,3.56
2018-03-20T04:30:38.957Z,3.68
2018-03-20T04:33:06.122Z,3.71
2018-03-20T04:35:39.612Z,3.62
2018-03-20T04:38:06.823Z,3.63
2018-03-20T04:40:34.112Z,3.62
2018-03-20T04:43:01.334Z,3.73
2018-03-20T04:45:31.973Z,3.80
2018-03-20T04:47:59.326Z,3.71
2018-03-20T04:50:26.612Z,3.74
2018-03-20T04:52:53.861Z,3.88
2018-03-20T04:55:26.498Z,3.83
2018-03-20T04:57:53.671Z,3.74
2018-03-20T05:00:20.934Z,3.83
2018-03-20T05:02:48.157Z,3.65
2018-03-20T05:05:15.523Z,3.65
2018-03-20T05:07:42.708Z,3.76
2018-03-20T05:10:09.865Z,3.76
2018-03-20T05:12:37.173Z,3.65
2018-03-20T05:15:05.562Z,3.58
2018-03-20T05:17:33.240Z,3.90
2018-03-20T05:20:05.509Z,3.71
2018-03-20T05:25:31.041Z,3.83
2018-03-20T05:27:58.351Z,3.70
2018-03-20T05:30:25.533Z,3.67
2018-03-20T05:32:52.862Z,3.76
2018-03-20T05:35:21.405Z,3.87
2018-03-20T05:37:48.855Z,3.56
2018-03-20T05:40:16.116Z,3.45
2018-03-20T05:42:43.484Z,3.44
2018-03-20T05:45:14.964Z,3.43
2018-03-20T05:47:48.201Z,3.45
2018-03-20T05:50:21.393Z,3.56
2018-03-20T05:52:48.733Z,3.47
2018-03-20T05:55:20.541Z,3.37
2018-03-20T05:57:47.789Z,3.32
2018-03-20T06:00:15.094Z,3.25
2018-03-20T06:02:42.322Z,3.30
2018-03-20T06:05:10.823Z,3.03
2018-03-20T06:07:38.484Z,3.06
2018-03-20T06:10:05.682Z,3.05
2018-03-20T06:12:33.017Z,2.99
2018-03-20T06:15:17.246Z,2.95
2018-03-20T06:17:44.458Z,2.96
2018-03-20T06:20:12.162Z,2.85
2018-03-20T06:22:39.895Z,2.77
2018-03-20T06:25:11.119Z,2.89
2018-03-20T06:27:38.242Z,2.92
2018-03-20T06:30:05.341Z,2.89
2018-03-20T06:32:32.653Z,2.88
2018-03-20T06:35:03.681Z,2.76
2018-03-20T06:37:30.899Z,2.81
2018-03-20T06:39:58.050Z,2.71
2018-03-20T06:42:25.227Z,2.63
2018-03-20T06:44:56.445Z,2.65
2018-03-20T06:47:23.757Z,2.62
2018-03-20T06:49:51.290Z,2.55
2018-03-20T06:52:18.513Z,2.64
2018-03-20T06:54:49.165Z,2.49
2018-03-20T06:57:16.537Z,2.42
2018-03-20T06:59:44.792Z,2.39
2018-03-20T07:02:12.749Z,2.35
2018-03-20T07:04:40.940Z,3.07
2018-03-20T07:07:08.138Z,3.52
2018-03-20T07:09:35.378Z,3.31
2018-03-20T07:12:02.559Z,2.90
2018-03-20T07:14:34.622Z,2.79
2018-03-20T07:17:01.849Z,2.54
2018-03-20T07:19:29.159Z,2.40
2018-03-20T07:21:56.441Z,2.05
2018-03-20T07:24:23.747Z,2.55
2018-03-20T07:26:51.346Z,1.68
2018-03-20T07:29:18.566Z,1.61
2018-03-20T07:31:45.851Z,1.48
2018-03-20T07:34:16.915Z,1.44
2018-03-20T07:36:44.041Z,1.39
2018-03-20T07:39:12.099Z,1.21
2018-03-20T07:41:39.178Z,0.98
2018-03-20T07:44:09.318Z,0.97
2018-03-20T07:46:36.545Z,0.81
2018-03-20T07:49:03.806Z,0.43
2018-03-20T07:51:31.497Z,0.47
2018-03-20T07:54:01.882Z,0.13
2018-03-20T07:56:29.122Z,0.10
2018-03-20T07:58:56.318Z,0.21
2018-03-20T08:01:23.555Z,0.04
2018-03-20T08:03:54.174Z,0.05
2018-03-20T08:06:21.484Z,-0.04
2018-03-20T08:08:48.874Z,0.01
2018-03-20T08:11:16.136Z,-0.09
2018-03-20T08:13:45.198Z,0.07
2018-03-20T08:16:13.316Z,0.15
2018-03-20T08:18:40.682Z,0.27
2018-03-20T08:21:07.903Z,0.22
2018-03-20T08:23:36.348Z,0.49
2018-03-20T08:26:03.637Z,0.42
2018-03-20T08:28:30.871Z,0.45
2018-03-20T08:30:58.293Z,0.49
2018-03-20T08:33:33.199Z,0.52
2018-03-20T08:36:00.330Z,0.51
2018-03-20T08:38:27.634Z,0.34
2018-03-20T08:40:54.746Z,0.46
2018-03-20T08:43:25.069Z,0.38
2018-03-20T08:45:52.274Z,0.48
2018-03-20T08:48:19.457Z,0.42
2018-03-20T08:50:46.794Z,0.46
2018-03-20T08:53:14.926Z,0.37
2018-03-20T08:55:42.198Z,0.60
2018-03-20T08:58:09.541Z,0.70
2018-03-20T09:00:36.746Z,0.57
2018-03-20T09:03:07.602Z,1.08
2018-03-20T09:05:34.818Z,1.01
2018-03-20T09:08:02.138Z,1.01
2018-03-20T09:10:29.323Z,1.33
2018-03-20T09:13:00.054Z,1.21
2018-03-20T09:15:27.181Z,1.13
2018-03-20T09:17:55.213Z,1.47
2018-03-20T09:20:22.238Z,1.03
2018-03-20T09:22:53.114Z,0.90
2018-03-20T09:25:20.281Z,0.83
2018-03-20T09:27:47.534Z,1.05
2018-03-20T09:30:15.878Z,1.40
2018-03-20T09:32:47.659Z,1.36
2018-03-20T09:35:14.898Z,0.97
2018-03-20T09:37:42.007Z,1.21
2018-03-20T09:40:09.255Z,1.10
2018-03-20T09:42:40.325Z,1.03
2018-03-20T09:45:07.602Z,1.12
2018-03-20T09:47:34.924Z,0.97
2018-03-20T09:50:02.071Z,0.95
2018-03-20T09:52:29.254Z,1.08
2018-03-20T09:54:56.576Z,1.43
2018-03-20T09:57:23.779Z,1.15
2018-03-20T09:59:51.069Z,0.97
2018-03-20T10:02:18.273Z,1.03
2018-03-20T10:04:46.630Z,0.97
2018-03-20T10:07:14.094Z,0.97
2018-03-20T10:09:41.535Z,1.26
2018-03-20T10:12:08.834Z,1.44
2018-03-20T10:14:39.154Z,1.03
2018-03-20T10:17:06.674Z,1.26
2018-03-20T10:19:34.138Z,1.03
2018-03-20T10:22:01.506Z,1.19
2018-03-20T10:24:29.994Z,1.36
2018-03-20T10:26:57.330Z,1.46
2018-03-20T10:29:24.721Z,1.15
2018-03-20T10:31:51.971Z,1.59
2018-03-20T10:34:20.461Z,1.37
2018-03-20T10:36:47.602Z,1.20
2018-03-20T10:39:14.889Z,1.16
2018-03-20T10:41:42.107Z,1.43
2018-03-20T10:44:12.832Z,1.53
2018-03-20T10:46:40.662Z,1.71
2018-03-20T10:49:08.022Z,2.30
2018-03-20T10:51:35.298Z,1.83
2018-03-20T10:54:03.649Z,1.79
2018-03-20T10:56:31.006Z,1.92
2018-03-20T10:58:58.599Z,1.87
2018-03-20T11:01:31.907Z,1.75
2018-03-20T11:04:00.245Z,2.03
2018-03-20T11:06:27.466Z,1.87
2018-03-20T11:08:54.637Z,2.20
2018-03-20T11:11:21.937Z,2.31
2018-03-20T11:13:55.826Z,2.40
2018-03-20T11:16:23.142Z,2.88
2018-03-20T11:18:50.378Z,2.01
2018-03-20T11:21:17.646Z,1.63
2018-03-20T11:23:48.211Z,2.52
2018-03-20T11:26:15.970Z,2.39
2018-03-20T11:28:43.658Z,1.93
2018-03-20T11:31:10.995Z,2.18
2018-03-20T11:33:41.889Z,2.31
2018-03-20T11:36:09.969Z,2.00
2018-03-20T11:38:37.183Z,1.83
2018-03-20T11:41:04.482Z,1.75
2018-03-20T11:43:34.951Z,1.57
2018-03-20T11:46:03.058Z,1.71
2018-03-20T11:48:30.362Z,2.43
2018-03-20T11:50:57.563Z,2.07
2018-03-20T11:53:26.962Z,2.24
2018-03-20T11:55:54.198Z,1.86
2018-03-20T11:58:21.411Z,1.77
2018-03-20T12:00:48.741Z,2.23
2018-03-20T12:03:17.154Z,1.92
2018-03-20T12:05:44.357Z,2.24
2018-03-20T12:08:29.490Z,2.23
2018-03-20T12:10:56.612Z,1.83
2018-03-20T12:13:25.221Z,2.00
2018-03-20T12:15:52.473Z,2.11
2018-03-20T12:18:19.691Z,2.26
2018-03-20T12:20:46.885Z,2.27
2018-03-20T12:23:15.188Z,2.49
2018-03-20T12:25:42.474Z,2.65
2018-03-20T12:28:10.430Z,2.19
2018-03-20T12:30:37.636Z,2.02
2018-03-20T12:33:10.955Z,1.94
2018-03-20T12:35:38.145Z,1.79
2018-03-20T12:38:06.055Z,1.77
2018-03-20T12:40:33.348Z,1.79
2018-03-20T12:43:04.493Z,1.80
2018-03-20T12:45:31.653Z,2.15
2018-03-20T12:47:58.924Z,2.38
2018-03-20T12:50:26.138Z,2.97
2018-03-20T12:52:54.354Z,2.77
2018-03-20T12:55:22.409Z,2.18
2018-03-20T12:57:49.665Z,2.39
2018-03-20T13:00:16.883Z,2.52
2018-03-20T13:02:50.344Z,3.26
2018-03-20T13:05:18.313Z,2.78
2018-03-20T13:07:45.602Z,2.54
2018-03-20T13:10:12.938Z,2.40
2018-03-20T13:12:46.526Z,2.28
2018-03-20T13:15:13.882Z,2.47
2018-03-20T13:17:41.138Z,3.17
2018-03-20T13:20:08.495Z,3.34
2018-03-20T13:22:36.669Z,2.99
2018-03-20T13:25:03.853Z,2.82
2018-03-20T13:27:31.097Z,3.61
2018-03-20T13:29:58.417Z,3.79
2018-03-20T13:32:29.306Z,3.52
2018-03-20T13:34:56.546Z,3.42
2018-03-20T13:37:23.898Z,2.79
2018-03-20T13:39:51.213Z,2.34
2018-03-20T13:42:22.575Z,2.50
2018-03-20T13:44:49.894Z,3.45
2018-03-20T13:47:17.093Z,3.43
2018-03-20T13:49:44.354Z,3.77
2018-03-20T13:52:17.767Z,4.04
2018-03-20T13:54:45.045Z,3.94
2018-03-20T13:57:12.253Z,3.93
2018-03-20T13:59:39.566Z,4.19
2018-03-20T14:02:10.774Z,4.05
2018-03-20T14:04:37.984Z,4.72
2018-03-20T14:07:05.201Z,3.80
2018-03-20T14:09:33.881Z,4.40
2018-03-20T14:12:02.150Z,4.10
2018-03-20T14:14:29.173Z,4.41
2018-03-20T14:16:56.506Z,4.35
2018-03-20T14:19:23.750Z,4.91
2018-03-20T14:21:55.094Z,4.57
2018-03-20T14:24:22.465Z,4.10
2018-03-20T14:26:49.614Z,4.21
2018-03-20T14:29:17.008Z,4.16
2018-03-20T14:31:44.215Z,4.06
2018-03-20T14:34:11.422Z,3.60
2018-03-20T14:36:39.461Z,4.17
2018-03-20T14:39:06.645Z,3.44
2018-03-20T14:41:33.909Z,3.92
2018-03-20T14:44:04.903Z,3.90
2018-03-20T14:46:32.142Z,3.37
2018-03-20T14:48:59.445Z,3.23
2018-03-20T14:51:26.683Z,3.15
2018-03-20T14:53:55.091Z,3.29
2018-03-20T14:56:22.370Z,3.40
2018-03-20T14:58:49.620Z,3.55
2018-03-20T15:01:17.037Z,4.04
2018-03-20T15:03:47.807Z,4.92
2018-03-20T15:06:15.298Z,4.82
2018-03-20T15:08:42.379Z,4.96
2018-03-20T15:11:10.317Z,4.31
2018-03-20T15:13:40.925Z,4.92
2018-03-20T15:16:09.677Z,4.99
2018-03-20T15:18:37.042Z,5.51
2018-03-20T15:21:04.366Z,5.29
2018-03-20T15:23:35.483Z,4.90
2018-03-20T15:26:02.658Z,4.64
2018-03-20T15:28:30.318Z,4.81
2018-03-20T15:30:58.578Z,3.60
2018-03-20T15:33:27.057Z,2.89
2018-03-20T15:35:54.242Z,2.69
2018-03-20T15:38:21.670Z,2.61
2018-03-20T15:40:48.819Z,2.55
2018-03-20T15:43:22.002Z,2.54
2018-03-20T15:45:49.296Z,2.54
2018-03-20T15:48:16.536Z,2.51
2018-03-20T15:50:43.798Z,2.55
2018-03-20T15:53:14.230Z,2.41
2018-03-20T15:55:42.151Z,2.57
2018-03-20T15:58:09.385Z,2.32
2018-03-20T16:00:37.071Z,2.46
2018-03-20T16:03:07.679Z,2.33
2018-03-20T16:05:35.183Z,2.40
2018-03-20T16:08:03.326Z,2.33
2018-03-20T16:13:25.151Z,2.37
2018-03-20T16:15:52.479Z,2.33
2018-03-20T16:18:20.295Z,2.31
2018-03-20T16:20:48.607Z,2.32
2018-03-20T16:23:19.243Z,2.34
2018-03-20T16:25:46.423Z,2.36
2018-03-20T16:28:13.822Z,2.30
2018-03-20T16:30:41.036Z,2.39
2018-03-20T16:33:10.936Z,2.38
2018-03-20T16:35:38.255Z,2.42
2018-03-20T16:38:05.474Z,2.35
2018-03-20T16:40:32.824Z,2.39
2018-03-20T16:43:03.273Z,2.32
2018-03-20T16:45:30.674Z,2.25
2018-03-20T16:47:58.682Z,2.23
2018-03-20T16:50:25.870Z,2.23
2018-03-20T16:52:54.375Z,2.20
2018-03-20T16:55:21.741Z,2.27
2018-03-20T16:57:48.950Z,2.25
2018-03-20T17:00:16.890Z,2.14
2018-03-20T17:02:44.437Z,2.17
2018-03-20T17:05:12.259Z,2.28
2018-03-20T17:07:39.598Z,2.22
2018-03-20T17:10:07.007Z,2.23
2018-03-20T17:12:35.854Z,2.14
2018-03-20T17:15:03.659Z,2.17
2018-03-20T17:17:30.948Z,2.23
2018-03-20T17:19:58.038Z,2.30
2018-03-20T17:22:28.764Z,2.47
2018-03-20T17:24:57.326Z,2.42
2018-03-20T17:27:24.575Z,2.44
2018-03-20T17:29:52.530Z,2.46
2018-03-20T17:32:20.719Z,2.37
2018-03-20T17:34:48.720Z,2.42
2018-03-20T17:37:16.027Z,2.47
2018-03-20T17:39:43.521Z,2.50
2018-03-20T17:42:10.835Z,2.42
2018-03-20T17:44:37.934Z,2.43
2018-03-20T17:47:06.888Z,2.40
2018-03-20T17:49:34.300Z,2.40
2018-03-20T17:52:01.779Z,2.39
2018-03-20T17:54:29.316Z,2.46
2018-03-20T17:56:56.559Z,2.53
2018-03-20T17:59:23.907Z,2.63
2018-03-20T18:01:52.310Z,2.64
2018-03-20T18:04:24.070Z,2.66
2018-03-20T18:06:51.364Z,2.67
2018-03-20T18:09:18.647Z,2.67
2018-03-20T18:11:49.632Z,2.70
2018-03-20T18:14:17.159Z,2.64
2018-03-20T18:16:45.788Z,2.58
2018-03-20T18:19:13.073Z,2.54
2018-03-20T18:21:40.389Z,2.64
2018-03-20T18:24:07.662Z,2.74
2018-03-20T18:26:34.863Z,2.62
2018-03-20T18:29:02.200Z,2.53
2018-03-20T18:31:30.483Z,2.50
2018-03-20T18:33:57.959Z,2.61
2018-03-20T18:36:25.332Z,2.58
2018-03-20T18:38:53.485Z,2.60
2018-03-20T18:41:21.943Z,2.42
2018-03-20T18:43:50.182Z,2.66
2018-03-20T18:46:18.520Z,2.58
2018-03-20T18:48:49.854Z,2.64
2018-03-20T18:51:18.835Z,2.54
2018-03-20T18:53:47.146Z,2.51
2018-03-20T18:56:14.410Z,2.62
2018-03-20T18:58:41.676Z,2.57
2018-03-20T19:01:12.733Z,2.96
2018-03-20T19:03:40.080Z,3.15
2018-03-20T19:06:07.376Z,3.09
2018-03-20T19:08:34.665Z,3.17
2018-03-20T19:11:02.022Z,3.32
2018-03-20T19:13:32.021Z,3.56
2018-03-20T19:16:01.699Z,3.41
2018-03-20T19:18:46.848Z,3.45
2018-03-20T19:21:18.136Z,3.29
2018-03-20T19:23:45.564Z,3.33
2018-03-20T19:26:12.893Z,3.29
2018-03-20T19:28:40.155Z,3.44
2018-03-20T19:31:09.191Z,3.47
2018-03-20T19:33:36.516Z,3.33
2018-03-20T19:36:03.743Z,3.27
2018-03-20T19:38:31.907Z,3.21
2018-03-20T19:41:00.171Z,3.23
2018-03-20T19:43:27.470Z,3.17
2018-03-20T19:45:54.816Z,3.12
2018-03-20T19:48:22.944Z,3.10
2018-03-20T19:50:50.770Z,3.34
2018-03-20T19:53:19.327Z,3.49
2018-03-20T19:55:50.142Z,3.44
2018-03-20T20:01:21.826Z,7.82
2018-03-20T20:03:49.175Z,4.12
2018-03-20T20:06:17.254Z,3.04
2018-03-20T20:08:44.486Z,3.13
2018-03-20T20:11:13.103Z,2.93
2018-03-20T20:13:40.366Z,2.74
2018-03-20T20:16:08.419Z,2.88
2018-03-20T20:18:36.632Z,3.09
2018-03-20T20:21:04.980Z,3.56
2018-03-20T20:23:33.207Z,2.77
2018-03-20T20:26:00.602Z,2.14
2018-03-20T20:28:27.959Z,2.08
2018-03-20T20:30:55.215Z,2.00
2018-03-20T20:33:22.838Z,2.37
2018-03-20T20:35:50.610Z,2.26
2018-03-20T20:38:18.794Z,2.82
2018-03-20T20:40:46.101Z,2.69
2018-03-20T20:43:14.546Z,3.31
2018-03-20T20:45:41.854Z,3.52
2018-03-20T20:48:09.238Z,3.39
2018-03-20T20:50:36.914Z,3.79
2018-03-20T20:53:04.378Z,4.18
2018-03-20T20:55:31.691Z,3.92
2018-03-20T20:57:58.954Z,3.50
2018-03-20T21:00:26.206Z,3.52
2018-03-20T21:02:59.070Z,3.39
2018-03-20T21:05:26.349Z,3.26
2018-03-20T21:07:53.435Z,3.21
2018-03-20T21:10:20.650Z,3.20
2018-03-20T21:12:48.955Z,3.41
2018-03-20T21:15:16.397Z,2.87
2018-03-20T21:17:43.810Z,2.98
2018-03-20T21:20:10.882Z,3.12
2018-03-20T21:22:39.290Z,2.76
2018-03-20T21:25:06.829Z,2.71
2018-03-20T21:27:34.065Z,2.75
2018-03-20T21:30:03.086Z,3.26
2018-03-20T21:32:30.449Z,3.38
2018-03-20T21:34:57.681Z,3.29
2018-03-20T21:37:24.779Z,3.24
2018-03-20T21:39:52.213Z,3.23
2018-03-20T21:42:20.503Z,2.58
2018-03-20T21:44:47.672Z,3.04
2018-03-20T21:47:15.019Z,2.87
2018-03-20T21:49:42.219Z,2.65
2018-03-20T21:52:10.482Z,2.53
2018-03-20T21:54:37.857Z,2.22
2018-03-20T21:57:05.065Z,2.35
2018-03-20T21:59:32.269Z,2.20
2018-03-20T22:02:00.504Z,2.03
2018-03-20T22:04:28.890Z,2.41
2018-03-20T22:06:56.211Z,2.10
2018-03-20T22:09:23.416Z,1.79
2018-03-20T22:11:51.774Z,2.03
2018-03-20T22:14:18.891Z,2.15
2018-03-20T22:16:46.059Z,2.13
2018-03-20T22:19:13.279Z,2.24
2018-03-20T22:21:41.553Z,2.44
2018-03-20T22:24:08.868Z,2.31
2018-03-20T22:26:36.117Z,2.51
2018-03-20T22:29:03.322Z,2.24
2018-03-20T22:31:31.671Z,2.57
2018-03-20T22:33:58.909Z,2.34
2018-03-20T22:36:26.145Z,2.10
2018-03-20T22:38:53.340Z,1.99
2018-03-20T22:41:20.477Z,2.43
2018-03-20T22:43:47.687Z,2.27
2018-03-20T22:46:15.636Z,2.14
2018-03-20T22:48:42.779Z,2.09
2018-03-20T22:51:11.042Z,1.83
2018-03-20T22:53:38.316Z,1.55
2018-03-20T22:56:05.472Z,1.80
2018-03-20T22:58:32.701Z,1.89
2018-03-20T23:01:05.495Z,1.92
2018-03-20T23:03:32.696Z,1.60
2018-03-20T23:05:59.809Z,1.44
2018-03-20T23:08:26.967Z,1.98
2018-03-20T23:10:55.224Z,2.12
2018-03-20T23:13:22.358Z,2.18
2018-03-20T23:15:49.571Z,1.72
2018-03-20T23:18:16.651Z,1.65
2018-03-20T23:20:43.884Z,1.94
2018-03-20T23:23:11.070Z,2.07
2018-03-20T23:25:38.155Z,1.88
2018-03-20T23:28:05.256Z,2.03
2018-03-20T23:30:33.752Z,2.17
2018-03-20T23:33:01.090Z,2.07
2018-03-20T23:35:28.211Z,1.90
2018-03-20T23:37:55.404Z,2.04
2018-03-20T23:40:22.668Z,1.95
2018-03-20T23:42:49.664Z,2.02
2018-03-20T23:45:16.803Z,1.95
2018-03-20T23:47:43.993Z,2.38
2018-03-20T23:50:11.147Z,2.51
2018-03-20T23:52:38.412Z,2.28
2018-03-20T23:55:05.574Z,2.54
2018-03-20T23:57:32.463Z,2.47
2018-03-20T23:59:59.624Z,2.40
